createdAt,value
2018-04-22T00:00:14.204Z,92.50
2018-04-22T00:02:42.482Z,92.30
2018-04-22T00:05:13.061Z,92.40
2018-04-22T00:10:10.764Z,92.90
2018-04-22T00:12:40.203Z,92.90
2018-04-22T00:15:08.441Z,93.40
2018-04-22T00:17:36.684Z,93.50
2018-04-22T00:20:04.997Z,93.30
2018-04-22T00:22:34.735Z,93.80
2018-04-22T00:25:03.754Z,93.70
2018-04-22T00:27:32.797Z,93.60
2018-04-22T00:30:01.036Z,93.60
2018-04-22T00:32:29.278Z,94.00
2018-04-22T00:37:27.413Z,94.40
2018-04-22T00:39:55.701Z,94.50
2018-04-22T00:42:25.226Z,94.70
2018-04-22T00:44:53.444Z,95.10
2018-04-22T00:47:21.714Z,95.10
2018-04-22T00:49:49.976Z,95.40
2018-04-22T00:52:18.219Z,95.30
2018-04-22T00:54:46.499Z,95.50
2018-04-22T00:59:44.267Z,95.70
2018-04-22T01:02:12.508Z,96.20
2018-04-22T01:04:41.936Z,96.20
2018-04-22T01:07:10.581Z,96.30
2018-04-22T01:09:38.819Z,96.50
2018-04-22T01:14:36.954Z,97.10
2018-04-22T01:17:05.209Z,97.30
2018-04-22T01:19:34.727Z,97.40
2018-04-22T01:22:03.363Z,98.00
2018-04-22T01:24:31.604Z,98.30
2018-04-22T01:27:00.768Z,98.60
2018-04-22T01:29:29.760Z,98.80
2018-04-22T01:31:58.387Z,98.90
2018-04-22T01:36:56.135Z,99.90
2018-04-22T01:39:24.375Z,99.90
2018-04-22T01:41:53.420Z,99.90
2018-04-22T01:44:22.429Z,99.90
2018-04-22T01:46:51.446Z,99.90
2018-04-22T01:49:21.601Z,99.90
2018-04-22T01:51:50.601Z,99.90
2018-04-22T01:54:18.876Z,99.90
2018-04-22T01:56:47.151Z,99.90
2018-04-22T01:59:15.389Z,99.90
2018-04-22T02:01:44.124Z,99.90
2018-04-22T02:04:13.507Z,99.90
2018-04-22T02:06:43.257Z,99.90
2018-04-22T02:09:11.528Z,99.90
2018-04-22T02:11:40.304Z,99.90
2018-04-22T02:14:08.539Z,99.90
2018-04-22T02:16:37.584Z,99.90
2018-04-22T02:19:05.823Z,99.90
2018-04-22T02:21:34.102Z,99.90
2018-04-22T02:24:02.348Z,99.90
2018-04-22T02:26:32.091Z,99.90
2018-04-22T02:29:00.533Z,99.90
2018-04-22T02:31:28.780Z,99.90
2018-04-22T02:33:58.533Z,99.90
2018-04-22T02:36:26.827Z,99.90
2018-04-22T02:38:56.590Z,99.90
2018-04-22T02:41:24.828Z,99.90
2018-04-22T02:43:53.128Z,99.90
2018-04-22T02:48:51.233Z,99.90
2018-04-22T02:51:19.505Z,99.90
2018-04-22T02:56:17.923Z,99.90
2018-04-22T02:58:46.176Z,99.90
2018-04-22T03:01:14.429Z,99.90
2018-04-22T03:03:42.736Z,99.90
2018-04-22T03:06:12.075Z,99.90
2018-04-22T03:08:41.084Z,99.90
2018-04-22T03:11:10.532Z,99.90
2018-04-22T03:13:38.778Z,99.90
2018-04-22T03:16:08.481Z,99.90
2018-04-22T03:21:06.615Z,99.90
2018-04-22T03:23:34.855Z,99.90
2018-04-22T03:26:04.036Z,99.90
2018-04-22T03:28:33.049Z,99.90
2018-04-22T03:31:02.064Z,99.90
2018-04-22T03:33:31.112Z,99.90
2018-04-22T03:35:59.355Z,99.90
2018-04-22T03:38:27.605Z,99.90
2018-04-22T03:40:55.887Z,99.90
2018-04-22T03:43:24.124Z,99.90
2018-04-22T03:45:53.876Z,99.90
2018-04-22T03:48:22.151Z,99.90
2018-04-22T03:50:50.396Z,99.90
2018-04-22T03:53:19.199Z,99.90
2018-04-22T03:55:48.233Z,99.90
2018-04-22T03:58:16.484Z,99.90
2018-04-22T04:00:44.765Z,99.90
2018-04-22T04:03:14.499Z,99.90
2018-04-22T04:05:43.583Z,99.90
2018-04-22T04:08:12.597Z,99.90
2018-04-22T04:10:40.840Z,99.90
2018-04-22T04:13:09.863Z,99.90
2018-04-22T04:21:27.497Z,99.90
2018-04-22T04:27:22.252Z,99.90
2018-04-22T04:32:19.982Z,99.90
2018-04-22T04:34:48.483Z,99.90
2018-04-22T04:37:16.746Z,99.90
2018-04-22T04:39:44.984Z,99.90
2018-04-22T04:42:13.247Z,99.90
2018-04-22T04:44:42.251Z,99.90
2018-04-22T04:47:11.259Z,99.90
2018-04-22T04:49:40.855Z,99.90
2018-04-22T04:52:09.685Z,99.90
2018-04-22T04:54:38.317Z,99.90
2018-04-22T04:57:06.998Z,99.90
2018-04-22T04:59:35.244Z,99.90
2018-04-22T05:02:04.992Z,99.90
2018-04-22T05:07:03.511Z,99.90
2018-04-22T05:09:31.765Z,99.90
2018-04-22T05:12:00.068Z,99.90
2018-04-22T05:17:21.010Z,99.90
2018-04-22T05:22:18.707Z,99.90
2018-04-22T05:24:47.223Z,99.90
2018-04-22T05:27:16.962Z,99.90
2018-04-22T05:29:45.203Z,99.90
2018-04-22T05:32:13.491Z,99.90
2018-04-22T05:37:11.188Z,99.90
2018-04-22T05:39:39.465Z,99.90
2018-04-22T05:42:07.698Z,99.90
2018-04-22T05:44:35.999Z,99.90
2018-04-22T05:47:05.427Z,99.90
2018-04-22T05:49:33.667Z,99.90
2018-04-22T05:52:02.263Z,99.90
2018-04-22T05:54:30.504Z,99.90
2018-04-22T05:59:28.247Z,99.90
2018-04-22T06:01:56.486Z,99.90
2018-04-22T06:04:25.859Z,99.90
2018-04-22T06:09:24.392Z,99.90
2018-04-22T06:11:52.631Z,99.90
2018-04-22T06:14:20.934Z,99.90
2018-04-22T06:16:49.171Z,99.90
2018-04-22T06:21:46.910Z,99.90
2018-04-22T06:24:15.151Z,99.90
2018-04-22T06:29:13.287Z,99.90
2018-04-22T06:31:41.519Z,99.90
2018-04-22T06:34:09.754Z,99.90
2018-04-22T06:36:38.042Z,99.90
2018-04-22T06:39:07.416Z,99.90
2018-04-22T06:41:35.660Z,99.90
2018-04-22T06:44:03.962Z,99.90
2018-04-22T06:46:32.194Z,99.90
2018-04-22T06:49:00.439Z,99.90
2018-04-22T06:51:28.730Z,99.90
2018-04-22T06:56:26.431Z,99.90
2018-04-22T06:58:55.114Z,99.90
2018-04-22T07:01:24.487Z,99.90
2018-04-22T07:03:52.722Z,99.90
2018-04-22T07:06:21.005Z,99.90
2018-04-22T07:08:49.238Z,99.90
2018-04-22T07:11:18.985Z,99.90
2018-04-22T07:13:48.018Z,99.90
2018-04-22T07:16:17.394Z,99.90
2018-04-22T07:18:45.666Z,99.90
2018-04-22T07:21:13.943Z,99.90
2018-04-22T07:23:42.183Z,99.90
2018-04-22T07:26:10.467Z,99.90
2018-04-22T07:28:38.705Z,99.90
2018-04-22T07:31:08.446Z,99.90
2018-04-22T07:33:36.740Z,99.90
2018-04-22T07:36:04.985Z,99.90
2018-04-22T07:38:34.346Z,99.90
2018-04-22T07:41:02.634Z,99.90
2018-04-22T07:43:30.867Z,99.90
2018-04-22T07:45:59.501Z,99.90
2018-04-22T07:48:27.793Z,99.90
2018-04-22T07:50:57.535Z,99.90
2018-04-22T07:53:25.842Z,99.90
2018-04-22T07:55:54.084Z,99.90
2018-04-22T07:58:23.335Z,99.90
2018-04-22T08:00:51.563Z,99.90
2018-04-22T08:03:19.875Z,99.90
2018-04-22T08:05:49.247Z,99.90
2018-04-22T08:08:17.891Z,99.90
2018-04-22T08:10:46.175Z,99.90
2018-04-22T08:13:14.411Z,99.90
2018-04-22T08:15:43.787Z,99.90
2018-04-22T08:18:12.074Z,99.90
2018-04-22T08:20:40.707Z,99.90
2018-04-22T08:25:38.458Z,99.90
2018-04-22T08:28:06.688Z,99.90
2018-04-22T08:30:36.435Z,99.90
2018-04-22T08:33:05.494Z,99.90
2018-04-22T08:35:33.730Z,99.90
2018-04-22T08:38:01.977Z,99.90
2018-04-22T08:40:31.024Z,99.90
2018-04-22T08:42:59.262Z,99.90
2018-04-22T08:45:27.894Z,99.90
2018-04-22T08:50:25.643Z,99.90
2018-04-22T08:52:53.878Z,99.90
2018-04-22T08:55:22.550Z,99.90
2018-04-22T08:57:51.927Z,99.90
2018-04-22T09:00:20.171Z,99.90
2018-04-22T09:02:48.439Z,99.90
2018-04-22T09:05:16.678Z,99.90
2018-04-22T09:07:44.967Z,99.90
2018-04-22T09:12:42.695Z,96.10
2018-04-22T09:15:11.766Z,95.00
2018-04-22T09:17:40.771Z,90.00
2018-04-22T09:25:09.481Z,69.20
2018-04-22T09:27:37.715Z,63.10
2018-04-22T09:30:07.169Z,59.90
2018-04-22T09:35:05.644Z,55.50
2018-04-22T09:37:33.924Z,55.20
2018-04-22T09:40:02.164Z,53.80
2018-04-22T09:42:30.404Z,51.40
2018-04-22T09:44:59.895Z,50.70
2018-04-22T09:47:28.135Z,50.80
2018-04-22T09:49:57.157Z,51.90
2018-04-22T09:52:26.187Z,51.30
2018-04-22T09:54:54.829Z,49.50
2018-04-22T09:57:23.054Z,52.80
2018-04-22T09:59:51.339Z,52.90
2018-04-22T10:02:25.315Z,52.70
2018-04-22T10:04:55.127Z,55.80
2018-04-22T10:07:23.343Z,56.30
2018-04-22T10:09:51.579Z,57.20
2018-04-22T10:12:19.888Z,60.40
2018-04-22T10:14:48.160Z,59.80
2018-04-22T10:17:17.534Z,62.10
2018-04-22T10:19:45.832Z,61.20
2018-04-22T10:22:14.071Z,64.30
2018-04-22T10:24:42.310Z,66.00
2018-04-22T10:29:40.463Z,67.30
2018-04-22T10:32:08.707Z,67.90
2018-04-22T10:34:37.014Z,67.00
2018-04-22T10:39:36.207Z,66.30
2018-04-22T10:42:04.896Z,69.40
2018-04-22T10:44:33.128Z,67.90
2018-04-22T10:49:30.900Z,68.90
2018-04-22T10:51:59.540Z,68.10
2018-04-22T10:54:27.787Z,70.20
2018-04-22T10:56:56.067Z,68.70
2018-04-22T10:59:25.438Z,68.20
2018-04-22T11:01:53.731Z,65.00
2018-04-22T11:04:22.006Z,67.00
2018-04-22T11:06:50.243Z,64.00
2018-04-22T11:09:18.484Z,65.50
2018-04-22T11:11:47.908Z,61.30
2018-04-22T11:16:46.011Z,66.20
2018-04-22T11:19:14.297Z,65.30
2018-04-22T11:21:42.527Z,65.00
2018-04-22T11:24:10.762Z,64.90
2018-04-22T11:26:40.563Z,64.40
2018-04-22T11:29:08.806Z,64.10
2018-04-22T11:31:38.541Z,62.60
2018-04-22T11:34:07.967Z,62.60
2018-04-22T11:36:36.967Z,62.10
2018-04-22T11:39:06.116Z,64.50
2018-04-22T11:41:35.154Z,62.20
2018-04-22T11:44:03.395Z,62.40
2018-04-22T11:46:32.017Z,62.80
2018-04-22T11:49:00.293Z,62.90
2018-04-22T11:51:29.659Z,62.20
2018-04-22T11:53:58.655Z,62.00
2018-04-22T11:56:26.933Z,63.60
2018-04-22T11:58:55.928Z,63.70
2018-04-22T12:03:54.791Z,63.90
2018-04-22T12:06:23.014Z,65.80
2018-04-22T12:08:51.245Z,66.70
2018-04-22T12:13:52.722Z,63.40
2018-04-22T12:16:20.954Z,64.10
2018-04-22T12:18:49.255Z,63.60
2018-04-22T12:21:17.483Z,64.30
2018-04-22T12:23:46.847Z,64.70
2018-04-22T12:26:15.138Z,65.40
2018-04-22T12:28:43.364Z,65.20
2018-04-22T12:31:12.355Z,66.50
2018-04-22T12:33:41.398Z,67.20
2018-04-22T12:36:09.639Z,68.70
2018-04-22T12:38:37.859Z,69.40
2018-04-22T12:41:06.562Z,71.30
2018-04-22T12:46:04.233Z,75.00
2018-04-22T12:51:02.347Z,74.20
2018-04-22T12:53:31.342Z,76.50
2018-04-22T12:56:01.134Z,76.70
2018-04-22T12:58:29.363Z,76.70
2018-04-22T13:00:57.604Z,76.40
2018-04-22T13:03:27.137Z,74.50
2018-04-22T13:05:56.911Z,77.30
2018-04-22T13:08:25.876Z,77.30
2018-04-22T13:10:54.921Z,76.00
2018-04-22T13:13:23.147Z,74.20
2018-04-22T13:20:51.834Z,72.40
2018-04-22T13:23:20.065Z,71.80
2018-04-22T13:25:48.370Z,68.20
2018-04-22T13:28:16.542Z,67.30
2018-04-22T13:35:44.850Z,67.20
2018-04-22T13:38:13.092Z,64.00
2018-04-22T13:40:42.503Z,62.50
2018-04-22T13:43:10.735Z,64.80
2018-04-22T13:45:38.972Z,66.40
2018-04-22T13:48:07.248Z,66.20
2018-04-22T13:50:35.479Z,66.30
2018-04-22T13:53:03.711Z,67.50
2018-04-22T13:55:31.979Z,69.60
2018-04-22T13:58:01.352Z,68.30
2018-04-22T14:00:33.030Z,69.00
2018-04-22T14:03:01.656Z,68.70
2018-04-22T14:05:30.643Z,68.90
2018-04-22T14:10:28.379Z,67.30
2018-04-22T14:12:56.607Z,69.40
2018-04-22T14:15:26.034Z,69.90
2018-04-22T14:17:54.267Z,71.00
2018-04-22T14:20:22.499Z,73.90
2018-04-22T14:22:50.774Z,74.70
2018-04-22T14:25:19.029Z,72.20
2018-04-22T14:27:47.237Z,71.80
2018-04-22T14:30:15.514Z,74.70
2018-04-22T14:32:44.874Z,74.30
2018-04-22T14:35:13.106Z,76.50
2018-04-22T14:37:41.387Z,73.50
2018-04-22T14:40:09.624Z,76.60
2018-04-22T14:42:37.859Z,75.30
2018-04-22T14:47:41.434Z,76.30
2018-04-22T14:50:09.658Z,76.20
2018-04-22T14:52:37.943Z,75.60
2018-04-22T14:55:07.682Z,75.80
2018-04-22T14:57:35.912Z,78.60
2018-04-22T15:00:04.191Z,79.40
2018-04-22T15:05:02.395Z,82.00
2018-04-22T15:07:30.670Z,80.40
2018-04-22T15:10:00.398Z,82.60
2018-04-22T15:12:28.635Z,82.00
2018-04-22T15:14:56.918Z,82.90
2018-04-22T15:17:25.151Z,84.60
2018-04-22T15:19:54.887Z,84.90
2018-04-22T15:22:23.938Z,85.20
2018-04-22T15:24:52.174Z,85.00
2018-04-22T15:29:51.955Z,84.60
2018-04-22T15:32:24.710Z,85.20
2018-04-22T15:34:53.748Z,83.80
2018-04-22T15:42:21.958Z,83.10
2018-04-22T15:44:50.187Z,83.30
2018-04-22T15:47:19.219Z,86.00
2018-04-22T15:49:48.951Z,86.70
2018-04-22T15:52:18.702Z,86.00
2018-04-22T15:54:47.390Z,87.30
2018-04-22T15:57:15.606Z,89.00
2018-04-22T15:59:45.024Z,89.40
2018-04-22T16:02:18.387Z,89.70
2018-04-22T16:04:47.761Z,90.70
2018-04-22T16:07:17.138Z,90.40
2018-04-22T16:09:45.402Z,89.70
2018-04-22T16:12:15.135Z,89.80
2018-04-22T16:14:44.559Z,88.50
2018-04-22T16:17:13.528Z,89.50
2018-04-22T16:19:41.750Z,87.80
2018-04-22T16:22:09.999Z,88.80
2018-04-22T16:27:08.170Z,87.20
2018-04-22T16:29:36.409Z,88.70
2018-04-22T16:32:04.718Z,89.30
2018-04-22T16:34:32.974Z,89.50
2018-04-22T16:39:31.115Z,90.30
2018-04-22T16:41:59.351Z,90.70
2018-04-22T16:44:27.610Z,91.20
2018-04-22T16:49:25.771Z,91.20
2018-04-22T16:51:54.011Z,90.50
2018-04-22T16:56:51.743Z,90.30
2018-04-22T16:59:20.003Z,91.10
2018-04-22T17:01:48.301Z,91.00
2018-04-22T17:04:18.035Z,91.10
2018-04-22T17:06:46.280Z,91.40
2018-04-22T17:09:14.585Z,91.40
2018-04-22T17:14:12.288Z,90.70
2018-04-22T17:16:40.590Z,90.90
2018-04-22T17:19:08.837Z,90.90
2018-04-22T17:21:38.213Z,91.50
2018-04-22T17:24:06.523Z,92.20
2018-04-22T17:29:05.059Z,93.00
2018-04-22T17:31:33.948Z,93.60
2018-04-22T17:34:02.940Z,94.40
2018-04-22T17:36:31.168Z,94.70
2018-04-22T17:38:59.439Z,95.20
2018-04-22T17:41:27.672Z,95.70
2018-04-22T17:43:55.931Z,94.30
2018-04-22T17:46:24.562Z,94.60
2018-04-22T17:48:53.551Z,92.70
2018-04-22T17:51:21.783Z,91.10
2018-04-22T17:53:50.854Z,88.30
2018-04-22T17:56:19.871Z,85.00
2018-04-22T18:01:19.112Z,82.70
2018-04-22T18:06:16.791Z,81.00
2018-04-22T18:08:45.072Z,80.50
2018-04-22T18:11:13.299Z,81.30
2018-04-22T18:13:41.527Z,80.50
2018-04-22T18:16:10.931Z,80.50
2018-04-22T18:18:39.160Z,81.70
2018-04-22T18:21:07.400Z,82.70
2018-04-22T18:23:35.670Z,84.10
2018-04-22T18:26:03.914Z,85.30
2018-04-22T18:28:32.131Z,85.80
2018-04-22T18:31:00.399Z,86.10
2018-04-22T18:33:28.631Z,86.60
2018-04-22T18:35:57.641Z,86.50
2018-04-22T18:38:25.919Z,87.30
2018-04-22T18:40:54.151Z,87.10
2018-04-22T18:43:22.390Z,87.50
2018-04-22T18:45:50.672Z,88.20
2018-04-22T18:48:20.402Z,88.70
2018-04-22T18:50:49.427Z,89.00
2018-04-22T18:53:18.467Z,89.50
2018-04-22T18:55:46.704Z,90.00
2018-04-22T18:58:14.926Z,90.10
2018-04-22T19:00:43.199Z,90.20
2018-04-22T19:03:11.450Z,90.40
2018-04-22T19:05:41.185Z,90.70
2018-04-22T19:08:10.227Z,91.20
2018-04-22T19:10:39.223Z,91.00
2018-04-22T19:13:08.223Z,91.30
2018-04-22T19:15:36.495Z,91.50
2018-04-22T19:20:34.475Z,92.00
2018-04-22T19:23:02.755Z,92.40
2018-04-22T19:25:32.102Z,92.40
2018-04-22T19:28:00.362Z,92.80
2018-04-22T19:30:28.599Z,92.90
2018-04-22T19:32:56.835Z,93.60
2018-04-22T19:35:26.639Z,93.80
2018-04-22T19:37:54.871Z,93.80
2018-04-22T19:40:23.125Z,94.10
2018-04-22T19:42:51.410Z,94.20
2018-04-22T19:45:19.643Z,94.90
2018-04-22T19:47:47.873Z,95.00
2018-04-22T19:50:16.163Z,95.10
2018-04-22T19:52:45.182Z,95.20
2018-04-22T19:55:14.194Z,96.00
2018-04-22T19:57:43.622Z,95.70
2018-04-22T20:00:11.851Z,95.80
2018-04-22T20:02:40.091Z,96.00
2018-04-22T20:05:08.408Z,96.00
2018-04-22T20:07:37.771Z,96.50
2018-04-22T20:10:06.012Z,96.80
2018-04-22T20:12:34.294Z,97.50
2018-04-22T20:15:02.539Z,97.60
2018-04-22T20:17:30.768Z,97.40
2018-04-22T20:20:00.543Z,97.90
2018-04-22T20:22:28.770Z,97.90
2018-04-22T20:24:57.046Z,98.50
2018-04-22T20:27:26.779Z,99.00
2018-04-22T20:29:55.026Z,99.60
2018-04-22T20:32:23.283Z,99.90
2018-04-22T20:34:51.577Z,99.90
2018-04-22T20:37:19.812Z,99.90
2018-04-22T20:39:48.040Z,99.90
2018-04-22T20:42:17.476Z,99.90
2018-04-22T20:44:46.472Z,99.90
2018-04-22T20:47:15.474Z,99.90
2018-04-22T20:49:43.830Z,99.90
2018-04-22T20:52:12.087Z,99.90
2018-04-22T20:54:40.350Z,99.90
2018-04-22T20:57:08.627Z,99.90
2018-04-22T20:59:36.880Z,99.90
2018-04-22T21:02:05.119Z,99.90
2018-04-22T21:07:03.151Z,99.90
2018-04-22T21:09:32.583Z,99.90
2018-04-22T21:12:01.592Z,99.90
2018-04-22T21:14:29.827Z,99.90
2018-04-22T21:16:58.868Z,99.90
2018-04-22T21:19:27.107Z,99.90
2018-04-22T21:21:55.395Z,99.90
2018-04-22T21:26:53.504Z,99.90
2018-04-22T21:31:51.651Z,99.90
2018-04-22T21:34:19.890Z,99.90
2018-04-22T21:36:48.167Z,99.90
2018-04-22T21:39:16.412Z,99.90
2018-04-22T21:41:46.154Z,99.90
2018-04-22T21:44:14.442Z,99.90
2018-04-22T21:46:43.080Z,99.90
2018-04-22T21:49:11.327Z,99.90
2018-04-22T21:51:40.608Z,99.90
2018-04-22T21:54:08.853Z,99.90
2018-04-22T21:59:07.122Z,99.90
2018-04-22T22:01:36.867Z,99.90
2018-04-22T22:04:05.114Z,99.90
2018-04-22T22:06:33.388Z,99.90
2018-04-22T22:09:01.633Z,99.90
2018-04-22T22:11:29.867Z,99.90
2018-04-22T22:13:59.649Z,99.90
2018-04-22T22:16:27.888Z,99.90
2018-04-22T22:18:56.129Z,99.90
2018-04-22T22:21:24.463Z,99.90
2018-04-22T22:23:52.703Z,99.90
2018-04-22T22:26:20.943Z,99.90
2018-04-22T22:28:49.215Z,99.90
2018-04-22T22:31:18.218Z,99.90
2018-04-22T22:36:17.480Z,99.90
2018-04-22T22:41:15.199Z,99.90
2018-04-22T22:43:43.438Z,99.90
2018-04-22T22:46:12.852Z,99.90
2018-04-22T22:48:41.491Z,99.90
2018-04-22T22:51:09.732Z,99.90
2018-04-22T22:53:37.967Z,99.90
2018-04-22T22:56:06.263Z,99.90
2018-04-22T22:58:34.519Z,99.90
2018-04-22T23:01:03.530Z,99.90
2018-04-22T23:03:31.802Z,99.90
2018-04-22T23:06:00.811Z,99.90
2018-04-22T23:08:29.820Z,99.90
2018-04-22T23:10:58.212Z,99.90
2018-04-22T23:13:26.449Z,99.90
2018-04-22T23:18:25.324Z,99.90
2018-04-22T23:23:23.063Z,99.90
2018-04-22T23:25:51.303Z,99.90
2018-04-22T23:28:19.551Z,99.90
2018-04-22T23:33:18.067Z,99.90
2018-04-22T23:35:47.445Z,99.90
2018-04-22T23:38:15.727Z,99.90
2018-04-22T23:40:43.970Z,99.90
2018-04-22T23:43:12.203Z,99.90
2018-04-22T23:45:40.477Z,99.90
2018-04-22T23:48:08.771Z,99.90
2018-04-22T23:50:38.123Z,99.90
2018-04-22T23:53:06.363Z,99.90
2018-04-22T23:55:34.639Z,99.90
2018-04-22T23:58:02.878Z,99.90
